Huntsville, UT (84317)

4:31 AM MST on March 01, 2015 (GMT -0700)
MesoWest SNOWBASIN - BASE UT US SNOWNET | Change Station
CLOSE
Current Station
Personal Weather Station
Location: Ogden, UT
Elevation: 6315 ft
Nearby Weather Stations

Elev 6315 ft 41.22 °N, 111.86 °W | Updated 31 minutes ago

Mostly Cloudy
Mostly Cloudy
21 °F
Feels Like 21 °F
N
1
Wind Variable Wind from SSW
Gusts 4.0 mph

Today
High -- | Low -- °F
--% Chance of Precip.
Yesterday
High -- | Low -- °F
Precip. -- in
7:01 AM 6:17 PM
Waxing Gibbous, 84% visible
Pressure 30.06 in
Visibility 10.0 miles
Clouds Overcast 5000 ft
Windchill 21 °F
Dew Point 21 °F
Humidity 100%
Rainfall -999.00 in
Snow Depth Not available.
UV 0 out of 12
Pollen 2.90 out of 12
Air Quality Not available.
Flu Activity Not available.
METAR KEVW 011053Z AUTO 06007KT 10SM OVC050 M07/M09 A2998 RMK AO2 SLP178 T10721089

More Conditions Fewer Conditions

Pressure 30.06 in
Visibility 10.0 miles
Clouds Overcast 5000 ft
Windchill 21 °F
Dew Point 21 °F
Humidity 100%
Rainfall -999.00 in
Snow Depth Not available.
UV 0 out of 12
Pollen 2.90 out of 12
Air Quality Not available.
Flu Activity Not available.
METAR KEVW 011053Z AUTO 06007KT 10SM OVC050 M07/M09 A2998 RMK AO2 SLP178 T10721089

More Conditions Fewer Conditions

10-Day Weather Forecast

Almanac

Astronomy

Mar. 01, 2015 Rise Set
Actual Time
Civil Twilight
Nautical Twilight
Astronomical Twilight
Moon
Length of Visible Light
Length of Day
Tomorrow will be .
, % of the Moon is Illuminated

Today's Extremes

State Highs State Lows

Community

WunderPhotos

Upload Photos

1,801,364 photos uploaded!

WunderBlogs® & News

Nearby

Air Quality

  Air Quality AQ Index Pollutant
Not available.

Snow Depth

Station Depth Elevation

Earthquake Activity

City Distance Mag. Time & Date
Minimum magnitude displayed is 2.5.

Coastal Water Temperatures

Place Temperature

Nearby Weather Stations